createdAt,value
2023-01-25T00:02:20.131Z,20.13
2023-01-25T00:04:47.719Z,13.50
2023-01-25T00:07:15.249Z,22.10
2023-01-25T00:09:42.979Z,24.25
2023-01-25T00:12:11.884Z,23.92
2023-01-25T00:14:39.611Z,22.48
2023-01-25T00:17:07.288Z,18.55
2023-01-25T00:19:34.980Z,18.52
2023-01-25T00:22:03.748Z,16.85
2023-01-25T00:24:31.246Z,14.98
2023-01-25T00:26:58.760Z,17.75
2023-01-25T00:29:27.704Z,12.73
2023-01-25T00:32:00.304Z,15.45
2023-01-25T00:34:46.746Z,19.48
2023-01-25T00:37:20.438Z,20.63
2023-01-25T00:39:48.035Z,16.85
2023-01-25T00:42:17.207Z,16.65
2023-01-25T00:44:46.513Z,16.35
2023-01-25T00:47:14.343Z,14.02
2023-01-25T00:49:43.367Z,15.38
2023-01-25T00:52:11.137Z,15.40
2023-01-25T00:54:38.651Z,16.10
2023-01-25T00:57:07.064Z,16.38
2023-01-25T00:59:34.583Z,16.58
2023-01-25T01:02:04.041Z,16.95
2023-01-25T01:04:31.860Z,17.25
2023-01-25T01:06:59.661Z,16.55
2023-01-25T01:09:27.459Z,14.95
2023-01-25T01:11:55.156Z,17.90
2023-01-25T01:14:23.869Z,17.13
2023-01-25T01:16:51.406Z,17.80
2023-01-25T01:19:20.473Z,15.27
2023-01-25T01:21:48.069Z,17.77
2023-01-25T01:24:15.840Z,17.40
2023-01-25T01:26:43.354Z,18.45
2023-01-25T01:29:10.887Z,20.20
2023-01-25T01:31:38.492Z,16.80
2023-01-25T01:34:06.045Z,19.58
2023-01-25T01:36:35.029Z,18.90
2023-01-25T01:39:02.815Z,21.20
2023-01-25T01:41:30.322Z,20.17
2023-01-25T01:43:57.823Z,18.98
2023-01-25T01:46:29.771Z,20.17
2023-01-25T01:48:59.961Z,19.60
2023-01-25T01:51:40.665Z,22.25
2023-01-25T01:54:11.478Z,21.58
2023-01-25T01:56:41.713Z,23.20
2023-01-25T01:59:10.555Z,21.70
2023-01-25T02:01:38.135Z,20.42
2023-01-25T02:04:07.177Z,21.05
2023-01-25T02:06:41.556Z,19.88
2023-01-25T02:09:09.052Z,21.73
2023-01-25T02:11:36.946Z,20.35
2023-01-25T02:14:05.061Z,23.13
2023-01-25T02:16:32.572Z,19.02
2023-01-25T02:19:02.155Z,21.13
2023-01-25T02:21:34.974Z,22.73
2023-01-25T02:24:07.649Z,16.25
2023-01-25T02:26:36.536Z,18.45
2023-01-25T02:29:05.986Z,24.63
2023-01-25T02:31:33.799Z,26.30
2023-01-25T02:34:01.587Z,28.75
2023-01-25T02:36:31.073Z,24.17
2023-01-25T02:39:01.230Z,28.45
2023-01-25T02:41:33.266Z,28.25
2023-01-25T02:44:04.181Z,31.50
2023-01-25T02:46:33.695Z,30.50
2023-01-25T02:49:02.158Z,30.20
2023-01-25T02:51:31.452Z,28.75
2023-01-25T02:53:59.433Z,33.28
2023-01-25T02:56:27.017Z,34.05
2023-01-25T02:58:54.554Z,33.65
2023-01-25T03:01:23.427Z,31.08
2023-01-25T03:03:50.975Z,33.25
2023-01-25T03:06:18.478Z,32.47
2023-01-25T03:08:45.996Z,30.98
2023-01-25T03:11:13.468Z,33.58
2023-01-25T03:13:40.950Z,33.00
2023-01-25T03:16:10.698Z,33.05
2023-01-25T03:18:40.140Z,29.25
2023-01-25T03:21:09.533Z,30.17
2023-01-25T03:23:37.619Z,31.73
2023-01-25T03:26:06.757Z,29.88
2023-01-25T03:28:34.242Z,38.17
2023-01-25T03:31:01.916Z,37.47
2023-01-25T03:33:29.467Z,35.17
2023-01-25T03:35:58.728Z,37.45
2023-01-25T03:38:26.919Z,30.50
2023-01-25T03:40:54.445Z,33.40
2023-01-25T03:43:22.345Z,28.90
2023-01-25T03:45:53.088Z,30.35
2023-01-25T03:48:20.990Z,31.38
2023-01-25T03:50:52.017Z,27.60
2023-01-25T03:53:27.539Z,30.50
2023-01-25T03:55:56.072Z,28.25
2023-01-25T03:58:23.721Z,32.55
2023-01-25T04:00:51.327Z,31.05
2023-01-25T04:03:19.893Z,35.70
2023-01-25T04:05:47.847Z,30.80
2023-01-25T04:08:15.455Z,27.08
2023-01-25T04:10:44.286Z,35.60
2023-01-25T04:13:11.748Z,30.83
2023-01-25T04:15:39.249Z,33.45
2023-01-25T04:18:06.795Z,39.38
2023-01-25T04:20:34.318Z,34.47
2023-01-25T04:23:01.812Z,37.75
2023-01-25T04:25:29.332Z,37.22
2023-01-25T04:27:58.230Z,37.85
2023-01-25T04:30:25.865Z,41.63
2023-01-25T04:32:53.717Z,36.60
2023-01-25T04:35:21.643Z,32.22
2023-01-25T04:37:54.511Z,31.83
2023-01-25T04:40:22.056Z,31.13
2023-01-25T04:42:49.558Z,33.28
2023-01-25T04:45:18.496Z,30.58
2023-01-25T04:47:45.965Z,32.13
2023-01-25T04:50:13.435Z,35.55
2023-01-25T04:52:40.907Z,32.28
2023-01-25T04:55:09.237Z,33.80
2023-01-25T04:57:36.887Z,54.30
2023-01-25T05:00:04.935Z,41.60
2023-01-25T05:02:33.893Z,38.08
2023-01-25T05:05:01.555Z,35.70
2023-01-25T05:07:29.028Z,36.08
2023-01-25T05:09:56.485Z,35.97
2023-01-25T05:12:24.035Z,39.15
2023-01-25T05:14:51.512Z,39.20
2023-01-25T05:17:19.018Z,37.72
2023-01-25T05:19:47.886Z,40.83
2023-01-25T05:22:15.990Z,39.58
2023-01-25T05:24:45.051Z,37.53
2023-01-25T05:27:13.180Z,36.78
2023-01-25T05:29:42.039Z,44.08
2023-01-25T05:32:11.111Z,54.15
2023-01-25T05:34:38.845Z,45.72
2023-01-25T05:37:09.754Z,46.65
2023-01-25T05:39:37.459Z,41.80
2023-01-25T05:42:05.273Z,48.03
2023-01-25T05:44:32.774Z,45.25
2023-01-25T05:47:00.250Z,46.33
2023-01-25T05:49:27.754Z,40.03
2023-01-25T05:51:55.222Z,44.22
2023-01-25T05:54:23.993Z,48.00
2023-01-25T05:56:51.478Z,45.50
2023-01-25T05:59:19.194Z,45.70
2023-01-25T06:01:46.892Z,44.92
2023-01-25T06:04:15.570Z,47.03
2023-01-25T06:06:43.369Z,45.13
2023-01-25T06:09:11.693Z,47.08
2023-01-25T06:11:40.817Z,39.22
2023-01-25T06:14:08.283Z,52.63
2023-01-25T06:16:35.739Z,44.40
2023-01-25T06:19:03.220Z,39.15
2023-01-25T06:21:30.703Z,49.42
2023-01-25T06:23:58.203Z,64.28
2023-01-25T06:26:25.695Z,58.17
2023-01-25T06:28:54.487Z,86.85
2023-01-25T06:31:22.139Z,74.95
2023-01-25T06:33:50.662Z,56.42
2023-01-25T06:36:20.203Z,56.83
2023-01-25T06:38:49.596Z,95.03
2023-01-25T06:41:17.085Z,56.83
2023-01-25T06:43:44.575Z,45.42
2023-01-25T06:46:13.580Z,38.80
2023-01-25T06:48:42.776Z,51.38
2023-01-25T06:51:11.803Z,64.30
2023-01-25T06:53:40.640Z,65.63
2023-01-25T06:56:11.738Z,59.17
2023-01-25T06:58:39.826Z,62.80
2023-01-25T07:01:10.065Z,49.00
2023-01-25T07:03:38.894Z,43.45
2023-01-25T07:06:08.814Z,38.50
2023-01-25T07:08:36.953Z,44.70
2023-01-25T07:11:06.375Z,40.38
2023-01-25T07:13:35.054Z,43.90
2023-01-25T07:16:04.517Z,34.80
2023-01-25T07:18:32.503Z,48.00
2023-01-25T07:21:05.661Z,46.80
2023-01-25T07:23:34.480Z,39.78
2023-01-25T07:26:02.642Z,37.13
2023-01-25T07:28:30.211Z,47.60
2023-01-25T07:30:57.953Z,39.50
2023-01-25T07:33:25.451Z,38.13
2023-01-25T07:35:52.922Z,36.42
2023-01-25T07:38:21.700Z,56.10
2023-01-25T07:40:52.684Z,65.50
2023-01-25T07:43:20.435Z,42.13
2023-01-25T07:45:49.555Z,42.63
2023-01-25T07:48:17.655Z,46.33
2023-01-25T07:50:49.464Z,44.33
2023-01-25T07:53:17.165Z,41.67
2023-01-25T07:55:45.953Z,33.05
2023-01-25T07:58:13.453Z,35.10
2023-01-25T08:00:41.309Z,42.30
2023-01-25T08:03:10.105Z,50.25
2023-01-25T08:05:39.438Z,39.85
2023-01-25T08:08:07.581Z,38.47
2023-01-25T08:10:35.129Z,38.10
2023-01-25T08:13:03.913Z,51.10
2023-01-25T08:15:31.434Z,42.20
2023-01-25T08:18:00.368Z,42.35
2023-01-25T08:20:27.921Z,37.05
2023-01-25T08:22:55.511Z,44.08
2023-01-25T08:25:23.187Z,36.90
2023-01-25T08:27:52.088Z,37.28
2023-01-25T08:30:21.201Z,35.55
2023-01-25T08:32:48.662Z,36.95
2023-01-25T08:35:16.338Z,38.60
2023-01-25T08:37:43.963Z,43.95
2023-01-25T08:40:13.825Z,41.05
2023-01-25T08:42:43.070Z,40.53
2023-01-25T08:45:11.551Z,33.63
2023-01-25T08:47:40.491Z,37.28
2023-01-25T08:50:09.378Z,35.88
2023-01-25T08:52:37.055Z,36.53
2023-01-25T08:55:05.214Z,35.10
2023-01-25T08:57:32.675Z,33.50
2023-01-25T09:00:00.146Z,30.88
2023-01-25T09:02:27.613Z,30.02
2023-01-25T09:04:56.427Z,30.30
2023-01-25T09:07:23.913Z,27.75
2023-01-25T09:09:51.448Z,24.85
2023-01-25T09:12:18.989Z,27.48
2023-01-25T09:14:46.473Z,26.17
2023-01-25T09:17:13.923Z,22.70
2023-01-25T09:19:42.444Z,30.05
2023-01-25T09:22:11.219Z,34.05
2023-01-25T09:24:38.720Z,25.77
2023-01-25T09:27:06.247Z,28.83
2023-01-25T09:29:33.774Z,30.73
2023-01-25T09:32:01.314Z,35.83
2023-01-25T09:34:28.866Z,30.90
2023-01-25T09:36:56.317Z,27.80
2023-01-25T09:39:25.554Z,34.28
2023-01-25T09:42:14.641Z,32.40
2023-01-25T09:44:54.111Z,23.27
2023-01-25T09:47:27.006Z,21.10
2023-01-25T09:50:19.125Z,26.05
2023-01-25T09:53:06.273Z,21.02
2023-01-25T09:55:35.328Z,26.45
2023-01-25T09:58:04.094Z,26.33
2023-01-25T10:00:33.840Z,26.08
2023-01-25T10:03:04.732Z,26.75
2023-01-25T10:05:34.113Z,33.78
2023-01-25T10:08:05.131Z,30.05
2023-01-25T10:10:37.401Z,28.67
2023-01-25T10:13:05.065Z,28.67
2023-01-25T10:15:36.922Z,23.63
2023-01-25T10:18:09.509Z,25.75
2023-01-25T10:20:40.469Z,23.33
2023-01-25T10:23:37.788Z,25.92
2023-01-25T10:26:09.347Z,28.05
2023-01-25T10:28:42.500Z,24.20
2023-01-25T10:31:18.277Z,25.60
2023-01-25T10:33:47.336Z,28.42
2023-01-25T10:36:16.887Z,29.08
2023-01-25T10:38:46.136Z,25.80
2023-01-25T10:41:19.040Z,26.95
2023-01-25T10:44:09.219Z,26.35
2023-01-25T10:46:37.172Z,31.70
2023-01-25T10:49:19.152Z,26.20
2023-01-25T10:51:46.627Z,24.63
2023-01-25T10:54:16.431Z,23.30
2023-01-25T10:56:46.005Z,25.15
2023-01-25T10:59:19.187Z,22.55
2023-01-25T11:01:46.787Z,26.50
2023-01-25T11:04:32.810Z,22.13
2023-01-25T11:07:02.515Z,24.42
2023-01-25T11:09:38.806Z,22.23
2023-01-25T11:12:18.905Z,22.58
2023-01-25T11:14:49.720Z,21.17
2023-01-25T11:17:26.741Z,21.70
2023-01-25T11:20:17.148Z,19.40
2023-01-25T11:22:52.662Z,20.23
2023-01-25T11:25:26.782Z,20.58
2023-01-25T11:28:11.425Z,21.58
2023-01-25T11:30:39.220Z,22.40
2023-01-25T11:33:11.603Z,21.42
2023-01-25T11:35:44.695Z,25.42
2023-01-25T11:40:44.217Z,23.80
2023-01-25T11:43:22.216Z,27.08
2023-01-25T11:46:08.670Z,25.23
2023-01-25T11:49:02.742Z,25.98
2023-01-25T11:51:33.492Z,27.90
2023-01-25T11:54:23.505Z,34.45
2023-01-25T11:56:56.602Z,42.78
2023-01-25T12:02:08.521Z,28.33
2023-01-25T12:04:47.182Z,43.55
2023-01-25T12:07:20.527Z,35.28
2023-01-25T12:10:04.122Z,36.05
2023-01-25T12:12:41.843Z,37.38
2023-01-25T12:15:26.979Z,38.22
2023-01-25T12:18:06.659Z,34.42
2023-01-25T12:20:43.157Z,31.80
2023-01-25T12:23:28.389Z,33.55
2023-01-25T12:26:16.685Z,32.03
2023-01-25T12:28:48.059Z,19.65
2023-01-25T12:31:20.571Z,17.80
2023-01-25T12:33:50.228Z,33.35
2023-01-25T12:36:21.264Z,33.90
2023-01-25T12:38:52.143Z,23.70
2023-01-25T12:41:27.743Z,24.42
2023-01-25T12:43:57.377Z,32.30
2023-01-25T12:46:29.895Z,37.83
2023-01-25T12:49:01.343Z,51.60
2023-01-25T12:51:34.928Z,43.33
2023-01-25T12:54:04.035Z,57.10
2023-01-25T12:56:40.690Z,44.00
2023-01-25T12:59:15.573Z,29.20
2023-01-25T13:01:47.918Z,50.95
2023-01-25T13:04:46.095Z,48.28
2023-01-25T13:07:17.481Z,38.38
2023-01-25T13:09:51.158Z,42.05
2023-01-25T13:12:18.875Z,40.63
2023-01-25T13:14:46.564Z,41.70
2023-01-25T13:17:24.585Z,21.02
2023-01-25T13:19:53.390Z,39.15
2023-01-25T13:22:58.673Z,33.47
2023-01-25T13:25:27.397Z,27.17
2023-01-25T13:28:39.353Z,38.70
2023-01-25T13:31:06.952Z,30.60
2023-01-25T13:33:36.912Z,21.40
2023-01-25T13:36:41.104Z,35.70
2023-01-25T13:39:42.311Z,42.88
2023-01-25T13:42:20.773Z,35.65
2023-01-25T13:44:51.639Z,37.22
2023-01-25T13:47:21.572Z,39.13
2023-01-25T13:49:55.020Z,38.90
2023-01-25T13:52:24.632Z,37.55
2023-01-25T13:54:55.973Z,37.22
2023-01-25T13:57:25.052Z,33.10
2023-01-25T14:00:10.898Z,32.40
2023-01-25T14:02:39.765Z,23.60
2023-01-25T14:05:18.972Z,35.83
2023-01-25T14:07:47.508Z,30.23
2023-01-25T14:10:17.414Z,34.75
2023-01-25T14:12:45.339Z,30.83
2023-01-25T14:15:21.726Z,32.83
2023-01-25T14:18:11.017Z,25.92
2023-01-25T14:20:40.086Z,25.00
2023-01-25T14:23:21.456Z,49.00
2023-01-25T14:25:49.015Z,35.58
2023-01-25T14:28:16.715Z,35.10
2023-01-25T14:30:44.505Z,34.08
2023-01-25T14:33:19.989Z,30.48
2023-01-25T14:35:55.488Z,31.20
2023-01-25T14:38:30.672Z,32.70
2023-01-25T14:41:02.231Z,25.52
2023-01-25T14:43:30.832Z,28.88
2023-01-25T14:45:58.541Z,27.92
2023-01-25T14:48:40.803Z,28.52
2023-01-25T14:51:16.933Z,27.30
2023-01-25T14:53:47.610Z,22.55
2023-01-25T14:56:32.532Z,26.60
2023-01-25T14:59:00.429Z,27.10
2023-01-25T15:01:33.563Z,23.45
2023-01-25T15:04:01.340Z,28.92
2023-01-25T15:06:30.366Z,30.50
2023-01-25T15:08:58.145Z,31.67
2023-01-25T15:11:38.839Z,33.20
2023-01-25T15:14:17.820Z,34.67
2023-01-25T15:16:45.563Z,32.83
2023-01-25T15:19:28.338Z,31.60
2023-01-25T15:21:58.537Z,31.13
2023-01-25T15:24:26.684Z,32.47
2023-01-25T15:26:55.874Z,33.45
2023-01-25T15:29:27.004Z,37.35
2023-01-25T15:31:56.163Z,40.95
2023-01-25T15:34:26.201Z,36.92
2023-01-25T15:36:53.888Z,56.08
2023-01-25T15:39:23.264Z,37.20
2023-01-25T15:41:50.765Z,37.42
2023-01-25T15:44:20.139Z,37.63
2023-01-25T15:46:50.638Z,36.58
2023-01-25T15:49:20.041Z,38.65
2023-01-25T15:51:48.685Z,38.63
2023-01-25T15:54:16.353Z,32.42
2023-01-25T15:56:46.826Z,37.67
2023-01-25T15:59:16.839Z,31.98
2023-01-25T16:01:44.755Z,29.75
2023-01-25T16:04:13.840Z,33.13
2023-01-25T16:06:43.918Z,38.92
2023-01-25T16:09:15.581Z,36.53
2023-01-25T16:11:44.651Z,34.42
2023-01-25T16:14:12.679Z,35.67
2023-01-25T16:16:43.556Z,33.90
2023-01-25T16:19:14.127Z,50.35
2023-01-25T16:21:42.133Z,28.40
2023-01-25T16:24:10.232Z,28.92
2023-01-25T16:26:39.562Z,32.30
2023-01-25T16:29:09.167Z,29.23
2023-01-25T16:31:36.729Z,29.95
2023-01-25T16:34:04.575Z,28.83
2023-01-25T16:36:34.052Z,24.88
2023-01-25T16:39:10.003Z,26.15
2023-01-25T16:41:38.032Z,22.45
2023-01-25T16:44:05.785Z,31.67
2023-01-25T16:46:34.924Z,28.08
2023-01-25T16:49:04.961Z,28.77
2023-01-25T16:51:33.432Z,29.58
2023-01-25T16:54:00.927Z,29.75
2023-01-25T16:56:30.382Z,30.02
2023-01-25T16:59:02.109Z,23.92
2023-01-25T17:01:29.729Z,29.52
2023-01-25T17:03:59.000Z,28.17
2023-01-25T17:06:28.054Z,32.33
2023-01-25T17:09:00.314Z,32.88
2023-01-25T17:11:28.329Z,27.38
2023-01-25T17:13:57.863Z,34.85
2023-01-25T17:16:26.913Z,32.13
2023-01-25T17:18:55.284Z,29.52
2023-01-25T17:21:24.573Z,29.67
2023-01-25T17:23:52.935Z,30.08
2023-01-25T17:26:21.682Z,28.42
2023-01-25T17:28:49.821Z,31.35
2023-01-25T17:31:19.448Z,27.83
2023-01-25T17:33:47.361Z,29.98
2023-01-25T17:36:15.338Z,30.23
2023-01-25T17:38:44.614Z,26.80
2023-01-25T17:41:14.167Z,26.35
2023-01-25T17:43:41.977Z,26.55
2023-01-25T17:46:13.488Z,31.63
2023-01-25T17:48:41.238Z,29.95
2023-01-25T17:51:08.773Z,31.48
2023-01-25T17:53:36.269Z,27.48
2023-01-25T17:56:06.462Z,28.40
2023-01-25T17:58:36.662Z,30.48
2023-01-25T18:01:13.778Z,27.20
2023-01-25T18:03:42.028Z,28.02
2023-01-25T18:06:09.902Z,31.85
2023-01-25T18:08:40.155Z,29.88
2023-01-25T18:11:10.232Z,29.92
2023-01-25T18:13:40.213Z,32.97
2023-01-25T18:16:09.538Z,33.22
2023-01-25T18:18:37.644Z,38.20
2023-01-25T18:21:07.732Z,30.50
2023-01-25T18:23:35.506Z,33.65
2023-01-25T18:26:05.277Z,27.88
2023-01-25T18:28:34.466Z,30.52
2023-01-25T18:31:06.057Z,36.03
2023-01-25T18:33:34.225Z,36.80
2023-01-25T18:36:03.857Z,37.47
2023-01-25T18:38:32.772Z,33.03
2023-01-25T18:41:00.823Z,36.42
2023-01-25T18:43:28.829Z,33.85
2023-01-25T18:45:59.542Z,32.63
2023-01-25T18:48:31.102Z,30.17
2023-01-25T18:50:59.531Z,27.33
2023-01-25T18:53:27.656Z,31.75
2023-01-25T18:55:59.748Z,29.95
2023-01-25T18:58:27.576Z,33.53
2023-01-25T19:01:03.826Z,33.55
2023-01-25T19:03:31.554Z,31.08
2023-01-25T19:05:59.278Z,25.05
2023-01-25T19:08:27.721Z,24.05
2023-01-25T19:11:06.427Z,26.63
2023-01-25T19:13:35.292Z,26.98
2023-01-25T19:16:06.347Z,28.63
2023-01-25T19:18:35.590Z,22.20
2023-01-25T19:21:03.690Z,26.05
2023-01-25T19:23:34.230Z,23.83
2023-01-25T19:26:01.906Z,24.10
2023-01-25T19:28:29.803Z,27.42
2023-01-25T19:30:57.794Z,27.80
2023-01-25T19:33:26.842Z,29.25
2023-01-25T19:36:01.296Z,26.75
2023-01-25T19:38:28.757Z,26.45
2023-01-25T19:40:56.269Z,27.52
2023-01-25T19:43:24.041Z,30.35
2023-01-25T19:45:51.632Z,27.10
2023-01-25T19:48:19.090Z,29.40
2023-01-25T19:50:48.466Z,30.25
2023-01-25T19:53:15.984Z,31.42
2023-01-25T19:55:43.640Z,31.20
2023-01-25T19:58:12.053Z,29.33
2023-01-25T20:00:39.789Z,30.20
2023-01-25T20:03:15.912Z,24.77
2023-01-25T20:05:44.337Z,20.38
2023-01-25T20:08:13.111Z,29.20
2023-01-25T20:10:40.877Z,48.25
2023-01-25T20:13:08.565Z,50.67
2023-01-25T20:15:36.190Z,33.38
2023-01-25T20:18:05.009Z,36.58
2023-01-25T20:20:32.807Z,32.08
2023-01-25T20:23:00.266Z,29.95
2023-01-25T20:25:29.071Z,93.13
2023-01-25T20:27:56.757Z,37.05
2023-01-25T20:30:24.244Z,28.70
2023-01-25T20:32:51.726Z,31.52
2023-01-25T20:35:19.208Z,27.13
2023-01-25T20:37:49.321Z,30.10
2023-01-25T20:40:17.726Z,27.70
2023-01-25T20:42:46.804Z,28.13
2023-01-25T20:45:16.953Z,25.23
2023-01-25T20:47:44.507Z,25.30
2023-01-25T20:50:12.405Z,27.42
2023-01-25T20:52:40.132Z,26.10
2023-01-25T20:55:08.518Z,31.52
2023-01-25T20:57:37.281Z,31.15
2023-01-25T21:00:09.358Z,29.13
2023-01-25T21:02:38.793Z,26.58
2023-01-25T21:05:06.814Z,26.38
2023-01-25T21:07:34.389Z,37.53
2023-01-25T21:10:01.866Z,34.35
2023-01-25T21:12:31.314Z,32.20
2023-01-25T21:14:59.058Z,24.40
2023-01-25T21:17:27.884Z,31.88
2023-01-25T21:19:57.959Z,30.45
2023-01-25T21:22:25.630Z,28.40
2023-01-25T21:24:53.129Z,30.08
2023-01-25T21:27:20.640Z,29.80
2023-01-25T21:29:48.137Z,27.23
2023-01-25T21:32:15.625Z,24.85
2023-01-25T21:34:44.699Z,23.70
2023-01-25T21:37:12.170Z,26.23
2023-01-25T21:39:40.042Z,28.90
2023-01-25T21:42:07.555Z,22.63
2023-01-25T21:44:52.985Z,24.05
2023-01-25T21:47:29.849Z,24.77
2023-01-25T21:50:17.687Z,24.02
2023-01-25T21:52:45.144Z,30.23
2023-01-25T21:55:12.638Z,20.48
2023-01-25T21:57:46.257Z,26.77
2023-01-25T22:00:15.912Z,26.85
2023-01-25T22:02:44.171Z,23.23
2023-01-25T22:05:13.223Z,23.25
2023-01-25T22:07:40.693Z,21.13
2023-01-25T22:10:09.324Z,24.45
2023-01-25T22:12:36.963Z,21.80
2023-01-25T22:15:05.242Z,25.52
2023-01-25T22:17:32.955Z,30.05
2023-01-25T22:20:00.455Z,22.58
2023-01-25T22:22:29.339Z,24.42
2023-01-25T22:24:56.954Z,23.55
2023-01-25T22:27:38.767Z,19.75
2023-01-25T22:30:07.761Z,20.10
2023-01-25T22:32:35.685Z,19.33
2023-01-25T22:35:03.253Z,20.30
2023-01-25T22:37:35.555Z,19.67
2023-01-25T22:40:03.430Z,18.17
2023-01-25T22:42:31.125Z,20.98
2023-01-25T22:44:58.824Z,19.42
2023-01-25T22:47:26.458Z,19.58
2023-01-25T22:49:54.129Z,19.83
2023-01-25T22:52:22.143Z,18.80
2023-01-25T22:54:51.814Z,15.35
2023-01-25T22:57:19.406Z,12.55
2023-01-25T22:59:46.925Z,10.20
2023-01-25T23:02:14.901Z,15.43
2023-01-25T23:04:42.528Z,17.30
2023-01-25T23:07:18.765Z,14.88
2023-01-25T23:09:48.214Z,16.13
2023-01-25T23:12:17.054Z,18.73
2023-01-25T23:14:54.090Z,17.67
2023-01-25T23:17:40.788Z,15.73
2023-01-25T23:20:11.234Z,16.23
2023-01-25T23:22:39.184Z,15.50
2023-01-25T23:25:08.418Z,15.93
2023-01-25T23:27:37.229Z,17.50
2023-01-25T23:30:07.121Z,16.08
2023-01-25T23:32:35.024Z,14.80
2023-01-25T23:35:02.508Z,16.85
2023-01-25T23:37:30.188Z,17.63
2023-01-25T23:39:57.819Z,15.95
2023-01-25T23:42:25.789Z,19.02
2023-01-25T23:44:54.604Z,16.55
2023-01-25T23:47:22.091Z,15.77
2023-01-25T23:49:49.578Z,16.90
2023-01-25T23:52:17.090Z,17.70
2023-01-25T23:54:44.791Z,22.45
2023-01-25T23:57:12.287Z,22.17
2023-01-25T23:59:39.782Z,16.02
